Time;durP1;ratioP1;P1;durP2;ratioP2;P2;SDS_P1;SDS_P2;PMS_P1;PMS_P2;Temp;Humidity;BMP_temperature;BMP_pressure;BME280_temperature;BME280_humidity;BME280_pressure;Samples;Min_cycle;Max_cycle;Signal;HPM_P1;HPM_P2
2021/12/09 00:01:39;;;;;;;17.15;4.40;;;;;;;12.25;79.72;101263.69;4935206;29;20075;-71
2021/12/09 00:04:11;;;;;;;13.33;3.60;;;;;;;12.28;80.05;101265.94;4935959;29;20134;-69
2021/12/09 00:06:40;;;;;;;16.50;5.10;;;;;;;12.27;79.89;101267.91;4932606;29;20544;-63
2021/12/09 00:09:10;;;;;;;20.90;3.50;;;;;;;12.34;80.16;101267.63;4933312;29;20082;-66
2021/12/09 00:11:45;;;;;;;21.13;4.50;;;;;;;12.40;79.87;101258.13;4933866;29;20078;-66
2021/12/09 00:14:16;;;;;;;17.97;4.50;;;;;;;12.57;79.54;101266.28;4933742;29;20090;-66
2021/12/09 00:16:44;;;;;;;12.03;3.50;;;;;;;12.66;79.29;101275.00;4934350;29;20047;-66
2021/12/09 00:19:11;;;;;;;18.33;4.47;;;;;;;12.57;79.50;101271.91;4931639;29;20134;-65
2021/12/09 00:21:37;;;;;;;20.00;4.77;;;;;;;12.69;79.46;101271.66;4933612;29;20058;-65
2021/12/09 00:24:05;;;;;;;16.10;4.43;;;;;;;12.69;79.18;101254.84;4934623;29;20103;-67
2021/12/09 00:26:32;;;;;;;14.80;4.43;;;;;;;12.76;78.89;101255.41;4932353;29;20688;-66
2021/12/09 00:28:59;;;;;;;15.57;4.10;;;;;;;12.76;79.13;101261.84;4929665;29;20090;-67
2021/12/09 00:31:26;;;;;;;17.00;3.30;;;;;;;12.66;79.20;101242.22;4933083;29;20139;-66
2021/12/09 00:33:55;;;;;;;11.10;2.70;;;;;;;12.61;78.85;101241.38;4927939;29;20071;-67
2021/12/09 00:36:34;;;;;;;12.57;3.10;;;;;;;12.61;78.89;101252.56;4934154;29;20048;-67
2021/12/09 00:39:01;;;;;;;16.57;3.03;;;;;;;12.65;78.48;101253.69;4927204;29;20389;-66
2021/12/09 00:41:28;;;;;;;16.73;3.43;;;;;;;12.36;78.35;101217.78;4928552;29;20130;-63
2021/12/09 00:43:55;;;;;;;12.47;3.97;;;;;;;12.48;78.64;101252.00;4930331;29;20558;-62
2021/12/09 00:46:22;;;;;;;18.53;5.20;;;;;;;12.22;78.55;101230.63;4933782;29;20138;-63
2021/12/09 00:48:49;;;;;;;17.70;3.07;;;;;;;12.30;78.50;101249.69;4932325;29;20145;-64
2021/12/09 00:51:17;;;;;;;21.93;3.83;;;;;;;12.20;78.66;101244.06;4932607;29;20130;-62
2021/12/09 00:53:44;;;;;;;16.50;4.77;;;;;;;12.14;78.64;101239.56;4934636;29;20086;-63
2021/12/09 00:56:13;;;;;;;20.40;4.00;;;;;;;12.13;78.62;101243.47;4932422;29;20071;-62
2021/12/09 00:58:41;;;;;;;22.67;4.33;;;;;;;12.20;78.46;101255.25;4933110;29;20059;-72
2021/12/09 01:01:09;;;;;;;13.85;3.30;;;;;;;12.20;78.66;101266.47;4931397;29;20059;-71
2021/12/09 01:03:38;;;;;;;17.77;3.73;;;;;;;12.15;78.91;101258.06;4931734;29;20131;-70
2021/12/09 01:06:06;;;;;;;21.97;4.37;;;;;;;12.27;78.90;101264.25;4933454;29;20079;-69
2021/12/09 01:08:43;;;;;;;16.23;4.40;;;;;;;12.28;79.00;101240.75;4933787;29;20054;-71
2021/12/09 01:11:14;;;;;;;18.77;4.47;;;;;;;12.33;78.78;101247.19;4929726;29;20047;-69
2021/12/09 01:13:42;;;;;;;18.73;3.83;;;;;;;12.37;78.62;101244.66;4933504;29;20492;-67
2021/12/09 01:16:10;;;;;;;17.27;3.90;;;;;;;12.38;78.54;101251.97;4926008;29;20404;-79
2021/12/09 01:18:39;;;;;;;29.07;4.33;;;;;;;12.41;78.26;101251.44;4932663;29;20051;-77
2021/12/09 01:21:08;;;;;;;21.77;5.33;;;;;;;12.36;78.63;101248.59;4921563;29;20052;-68
2021/12/09 01:23:35;;;;;;;16.00;5.67;;;;;;;12.26;79.07;101237.38;4930641;29;20055;-66
2021/12/09 01:26:04;;;;;;;18.93;6.27;;;;;;;12.33;79.04;101246.34;4932603;29;20073;-63
2021/12/09 01:28:40;;;;;;;15.20;4.25;;;;;;;12.39;79.41;101250.84;4932543;29;20187;-63
2021/12/09 01:31:08;;;;;;;23.00;5.53;;;;;;;12.43;79.39;101257.56;4932820;29;20075;-63
2021/12/09 01:33:36;;;;;;;25.63;4.83;;;;;;;12.43;79.66;101248.34;4933382;29;20492;-63
2021/12/09 01:36:05;;;;;;;27.23;6.47;;;;;;;12.43;79.95;101254.78;4930608;29;20098;-63
2021/12/09 01:38:33;;;;;;;17.53;3.43;;;;;;;12.53;79.91;101260.41;4928712;29;20143;-62
2021/12/09 01:41:01;;;;;;;32.47;5.23;;;;;;;12.57;80.06;101261.53;4930154;29;20484;-62
2021/12/09 01:43:28;;;;;;;25.03;4.57;;;;;;;12.61;79.92;101244.16;4930961;29;20048;-62
2021/12/09 01:46:21;;;;;;;20.50;3.97;;;;;;;12.80;80.16;101259.34;4927988;29;20496;-62
2021/12/09 01:48:52;;;;;;;25.13;4.93;;;;;;;12.86;79.45;101258.22;4935337;29;20138;-63
2021/12/09 01:51:20;;;;;;;20.37;4.30;;;;;;;12.92;79.30;101250.66;4920958;29;20058;-62
2021/12/09 01:53:47;;;;;;;17.23;5.83;;;;;;;12.96;79.42;101252.63;4928502;29;20044;-62
2021/12/09 01:56:22;;;;;;;22.10;5.60;;;;;;;13.01;79.33;101252.63;4933588;29;20051;-65
2021/12/09 01:58:53;;;;;;;23.90;4.33;;;;;;;13.08;79.12;101243.09;4932196;29;20559;-65
2021/12/09 02:01:21;;;;;;;20.70;4.27;;;;;;;13.13;78.96;101249.56;4932601;29;20098;-66
2021/12/09 02:03:49;;;;;;;15.23;3.30;;;;;;;13.15;78.75;101244.50;4932570;29;20047;-66
2021/12/09 02:06:17;;;;;;;26.50;4.20;;;;;;;13.19;78.70;101253.19;4930270;29;20048;-67
2021/12/09 02:08:46;;;;;;;17.23;5.30;;;;;;;13.22;78.60;101247.00;4932503;29;20066;-66
2021/12/09 02:11:13;;;;;;;26.30;4.40;;;;;;;13.29;78.59;101261.63;4932280;29;20048;-67
2021/12/09 02:13:39;;;;;;;21.33;4.87;;;;;;;13.32;78.53;101269.47;4930944;29;20047;-67
2021/12/09 02:16:08;;;;;;;18.27;5.00;;;;;;;13.23;78.53;101240.28;4932606;29;20080;-73
2021/12/09 02:18:35;;;;;;;22.30;4.87;;;;;;;13.25;78.30;101238.06;4932179;29;20460;-73
2021/12/09 02:21:06;;;;;;;26.63;4.63;;;;;;;13.37;78.39;101249.00;4930245;29;20124;-73
2021/12/09 02:23:34;;;;;;;11.23;3.58;;;;;;;13.40;78.29;101260.50;4929918;29;20063;-76
2021/12/09 02:26:00;;;;;;;22.10;4.23;;;;;;;13.42;78.18;101269.47;4932791;29;20126;-76
2021/12/09 02:28:27;;;;;;;24.70;4.00;;;;;;;13.40;78.17;101266.13;4931886;29;20139;-72
2021/12/09 02:30:54;;;;;;;18.43;3.73;;;;;;;13.34;78.03;101252.38;4927606;29;20046;-72
2021/12/09 02:33:21;;;;;;;18.50;3.77;;;;;;;13.33;77.94;101262.72;4929695;29;20102;-70
2021/12/09 02:35:48;;;;;;;21.53;4.53;;;;;;;13.44;77.93;101269.19;4930137;29;20863;-70
2021/12/09 02:38:15;;;;;;;27.57;4.63;;;;;;;13.45;78.13;101265.25;4934532;29;20082;-69
2021/12/09 02:40:42;;;;;;;21.30;5.17;;;;;;;13.46;77.98;101267.78;4929843;29;20131;-69
2021/12/09 02:43:09;;;;;;;26.00;4.87;;;;;;;13.41;78.02;101265.00;4928992;29;20090;-70
2021/12/09 02:45:40;;;;;;;30.17;4.23;;;;;;;13.47;77.95;101263.88;4931419;29;20259;-70
2021/12/09 02:48:06;;;;;;;28.13;5.07;;;;;;;13.51;78.06;101267.78;4932742;29;20075;-70
2021/12/09 02:50:33;;;;;;;20.63;4.33;;;;;;;13.47;77.91;101257.41;4929464;29;20642;-68
2021/12/09 02:53:00;;;;;;;26.67;4.50;;;;;;;13.50;78.08;101265.25;4932553;29;20087;-68
2021/12/09 02:55:27;;;;;;;19.40;5.10;;;;;;;13.43;78.26;101264.69;4932275;29;20126;-71
2021/12/09 02:57:54;;;;;;;17.13;3.47;;;;;;;13.40;78.38;101270.88;4924703;29;20099;-71
2021/12/09 03:00:21;;;;;;;17.37;4.10;;;;;;;13.46;78.47;101273.38;4932096;29;20194;-71
2021/12/09 03:02:48;;;;;;;18.27;3.73;;;;;;;13.42;78.44;101263.84;4931044;29;20079;-71
2021/12/09 03:05:16;;;;;;;16.17;3.50;;;;;;;13.48;78.48;101273.13;4931738;29;20051;-70
2021/12/09 03:07:43;;;;;;;21.70;4.30;;;;;;;13.20;78.48;101261.31;4927270;29;20054;-71
2021/12/09 03:10:20;;;;;;;17.67;2.83;;;;;;;13.03;79.13;101260.78;4930265;29;20082;-74
2021/12/09 03:12:50;;;;;;;40.77;4.80;;;;;;;12.99;79.59;101263.28;4928103;29;20055;-73
2021/12/09 03:15:17;;;;;;;16.08;3.42;;;;;;;12.86;79.93;101247.03;4934136;29;20107;-65
2021/12/09 03:17:46;;;;;;;17.40;3.20;;;;;;;13.01;79.85;101260.19;4935041;29;20107;-64
2021/12/09 03:20:15;;;;;;;18.10;4.10;;;;;;;13.07;79.88;101261.06;4936383;29;20146;-62
2021/12/09 03:22:43;;;;;;;16.73;4.50;;;;;;;13.15;79.65;101255.72;4934238;29;20142;-62
2021/12/09 03:25:13;;;;;;;19.20;3.43;;;;;;;13.07;79.61;101231.03;4932237;29;20135;-62
2021/12/09 03:27:40;;;;;;;28.43;4.60;;;;;;;13.18;79.77;101254.31;4931400;29;20497;-62
2021/12/09 03:30:10;;;;;;;10.17;2.93;;;;;;;13.17;79.64;101247.03;4935032;29;20807;-62
2021/12/09 03:32:37;;;;;;;19.17;3.30;;;;;;;13.11;79.70;101248.16;4935510;29;20083;-62
2021/12/09 03:35:06;;;;;;;16.90;3.33;;;;;;;13.16;79.88;101251.81;4936255;29;20152;-67
2021/12/09 03:37:33;;;;;;;14.00;3.50;;;;;;;13.01;80.20;101226.56;4932769;29;20138;-64
2021/12/09 03:40:00;;;;;;;12.80;2.47;;;;;;;13.17;79.78;101249.84;4935547;29;20059;-65
2021/12/09 03:42:29;;;;;;;12.23;1.90;;;;;;;13.23;80.01;101251.50;4933164;29;20131;-66
2021/12/09 03:44:56;;;;;;;15.37;3.00;;;;;;;13.27;79.92;101252.66;4931527;29;20174;-66
2021/12/09 03:47:25;;;;;;;14.23;2.37;;;;;;;13.21;79.96;101253.75;4933898;29;20134;-66
2021/12/09 03:49:53;;;;;;;12.55;3.33;;;;;;;13.22;80.03;101247.00;4935683;29;20055;-64
2021/12/09 03:52:20;;;;;;;11.63;2.50;;;;;;;13.22;80.11;101255.41;4933726;29;20072;-64
2021/12/09 03:54:47;;;;;;;10.18;2.28;;;;;;;13.24;80.22;101253.22;4936043;29;20134;-63
2021/12/09 03:57:14;;;;;;;15.05;3.20;;;;;;;13.29;80.13;101250.41;4933563;29;21569;-63
2021/12/09 03:59:42;;;;;;;17.57;2.97;;;;;;;13.32;80.10;101255.44;4931383;29;20135;-63
2021/12/09 04:02:11;;;;;;;12.07;2.77;;;;;;;13.36;79.99;101245.34;4935454;29;20130;-64
2021/12/09 04:04:39;;;;;;;5.63;1.98;;;;;;;13.37;80.07;101255.47;4936157;29;20048;-65
2021/12/09 04:07:06;;;;;;;15.53;3.07;;;;;;;13.41;80.00;101259.38;4931083;29;20099;-65
2021/12/09 04:09:34;;;;;;;10.33;2.20;;;;;;;13.43;80.18;101248.69;4933497;29;20150;-65
2021/12/09 04:12:01;;;;;;;15.47;2.73;;;;;;;13.41;80.23;101242.53;4935138;29;20094;-65
2021/12/09 04:14:28;;;;;;;17.47;3.27;;;;;;;13.36;80.34;101244.50;4935346;29;20563;-65
2021/12/09 04:16:56;;;;;;;12.63;3.20;;;;;;;13.38;80.49;101251.53;4930275;29;20555;-65
2021/12/09 04:19:24;;;;;;;15.50;2.50;;;;;;;13.37;80.32;101243.41;4933435;29;20055;-65
2021/12/09 04:21:51;;;;;;;13.27;2.47;;;;;;;13.40;80.26;101257.69;4933655;29;20078;-66
2021/12/09 04:24:20;;;;;;;13.03;3.13;;;;;;;13.41;80.36;101250.97;4933757;29;20559;-67
2021/12/09 04:26:50;;;;;;;17.43;3.20;;;;;;;13.40;80.38;101254.91;4934196;29;20048;-65
2021/12/09 04:29:17;;;;;;;15.98;3.25;;;;;;;13.42;80.39;101255.44;4935173;29;20126;-65
2021/12/09 04:31:47;;;;;;;15.53;3.20;;;;;;;13.47;80.39;101257.41;4932593;29;20075;-64
2021/12/09 04:34:15;;;;;;;;;;;;;;;13.50;80.86;101243.66;4924224;29;21815;-64
2021/12/09 04:36:42;;;;;;;18.43;3.17;;;;;;;13.52;80.41;101241.41;4928610;29;19954;-63
2021/12/09 04:39:09;;;;;;;20.93;3.20;;;;;;;13.55;80.47;101242.81;4934583;29;20147;-66
2021/12/09 04:41:36;;;;;;;11.00;3.00;;;;;;;13.50;80.49;101235.25;4934474;29;20051;-67
2021/12/09 04:44:04;;;;;;;17.57;2.37;;;;;;;13.56;80.38;101243.63;4933470;29;20075;-68
2021/12/09 04:46:31;;;;;;;17.63;3.90;;;;;;;13.44;80.68;101230.75;4932986;29;20130;-68
2021/12/09 04:48:58;;;;;;;14.33;2.87;;;;;;;13.38;81.00;101251.53;4933604;29;20095;-68
2021/12/09 04:51:25;;;;;;;16.67;3.07;;;;;;;13.21;81.35;101231.31;4928347;29;20135;-68
2021/12/09 04:53:52;;;;;;;15.80;3.13;;;;;;;13.16;81.61;101240.59;4934920;29;20594;-62
2021/12/09 04:56:19;;;;;;;14.03;3.10;;;;;;;13.25;81.69;101252.09;4932763;29;20066;-63
2021/12/09 04:58:46;;;;;;;9.17;2.90;;;;;;;13.20;81.81;101246.47;4930635;29;20051;-63
2021/12/09 05:01:13;;;;;;;13.03;2.90;;;;;;;13.23;81.75;101245.88;4933219;29;20054;-63
2021/12/09 05:03:44;;;;;;;11.20;2.10;;;;;;;13.16;82.08;101245.31;4931612;29;20600;-63
2021/12/09 05:06:11;;;;;;;21.00;2.53;;;;;;;13.18;81.94;101246.72;4922698;29;20138;-68
2021/12/09 05:08:44;;;;;;;14.07;2.30;;;;;;;13.11;82.14;101250.94;4918989;29;20170;-63
2021/12/09 05:11:26;;;;;;;7.20;1.47;;;;;;;13.24;82.26;101258.84;4930640;29;20059;-64
2021/12/09 05:13:54;;;;;;;10.63;2.27;;;;;;;13.22;82.16;101264.69;4932324;29;20079;-64
2021/12/09 05:16:21;;;;;;;13.47;3.23;;;;;;;13.15;82.48;101272.53;4933740;29;20611;-65
2021/12/09 05:18:48;;;;;;;8.30;2.33;;;;;;;13.13;82.46;101279.53;4933290;29;21721;-66
2021/12/09 05:21:17;;;;;;;9.97;1.87;;;;;;;13.09;82.58;101284.03;4932733;29;20563;-62
2021/12/09 05:23:44;;;;;;;7.13;2.90;;;;;;;13.01;82.76;101280.66;4934079;29;20527;-64
2021/12/09 05:26:10;;;;;;;12.33;2.20;;;;;;;13.01;82.80;101282.63;4933558;29;20130;-65
2021/12/09 05:28:52;;;;;;;16.30;3.50;;;;;;;12.98;82.74;101269.16;4928428;29;20047;-65
2021/12/09 05:34:04;;;;;;;17.17;2.90;;;;;;;13.05;82.47;101281.78;4926474;29;20099;-64
2021/12/09 05:36:31;;;;;;;13.50;2.80;;;;;;;13.08;82.30;101265.53;4933088;29;20054;-64
2021/12/09 05:38:58;;;;;;;18.20;2.80;;;;;;;13.22;82.48;101289.91;4931323;29;20563;-67
2021/12/09 05:41:25;;;;;;;15.87;2.53;;;;;;;13.24;82.62;101286.88;4935784;29;20087;-68
2021/12/09 05:43:52;;;;;;;9.13;2.43;;;;;;;13.17;82.80;101277.88;4933012;29;20079;-69
2021/12/09 05:46:22;;;;;;;6.43;1.50;;;;;;;13.25;82.57;101282.94;4934300;29;20079;-68
2021/12/09 05:48:49;;;;;;;;;;;;;;;13.29;82.91;101278.44;4931698;29;20056;-76
2021/12/09 05:51:16;;;;;;;19.43;3.17;;;;;;;13.25;82.67;101282.94;4933317;29;20013;-78
2021/12/09 05:53:43;;;;;;;8.47;2.50;;;;;;;13.15;82.67;101280.09;4932333;29;20132;-83
2021/12/09 05:56:10;;;;;;;16.97;3.03;;;;;;;13.15;83.02;101282.91;4933875;29;20123;-86
2021/12/09 05:58:37;;;;;;;25.93;2.87;;;;;;;13.19;82.79;101273.66;4934840;29;20126;-82
2021/12/09 06:01:05;;;;;;;11.93;2.63;;;;;;;13.21;83.00;101276.19;4934807;29;20051;-67
2021/12/09 06:03:33;;;;;;;32.33;3.03;;;;;;;13.13;83.13;101274.78;4932689;29;20460;-78
2021/12/09 06:06:05;;;;;;;20.13;2.70;;;;;;;13.12;83.24;101277.84;4934344;29;20480;-80
2021/12/09 06:08:33;;;;;;;11.57;2.50;;;;;;;13.13;83.32;101283.22;4934997;29;20079;-76
2021/12/09 06:11:01;;;;;;;10.10;2.67;;;;;;;13.14;83.42;101282.06;4923210;29;20521;-70
2021/12/09 06:13:30;;;;;;;15.93;3.00;;;;;;;13.26;83.43;101295.84;4929769;29;20128;-71
2021/12/09 06:15:57;;;;;;;14.23;3.00;;;;;;;13.22;83.38;101303.09;4930814;29;20139;-70
2021/12/09 06:18:25;;;;;;;9.90;1.63;;;;;;;13.24;83.27;101298.09;4932550;29;20048;-70
2021/12/09 06:20:52;;;;;;;18.13;2.40;;;;;;;13.32;83.25;101303.13;4930840;29;20132;-73
2021/12/09 06:23:18;;;;;;;8.83;1.87;;;;;;;13.10;83.21;101269.75;4931775;29;20077;-73
2021/12/09 06:25:46;;;;;;;11.43;1.73;;;;;;;13.26;83.11;101313.53;4929942;29;20058;-67
2021/12/09 06:28:13;;;;;;;14.33;2.30;;;;;;;13.26;83.10;101312.66;4928480;29;20245;-65
2021/12/09 06:30:40;;;;;;;15.70;2.00;;;;;;;13.28;82.91;101316.03;4925866;29;20115;-69
2021/12/09 06:33:06;;;;;;;9.63;1.43;;;;;;;13.20;82.77;101308.16;4930000;29;20550;-69
2021/12/09 06:35:34;;;;;;;7.23;1.93;;;;;;;13.26;82.87;101315.47;4925425;29;20051;-68
2021/12/09 06:38:01;;;;;;;13.03;2.47;;;;;;;13.26;82.82;101318.28;4929681;29;20079;-63
2021/12/09 06:40:28;;;;;;;8.33;1.53;;;;;;;13.24;82.75;101310.16;4922181;29;20054;-64
2021/12/09 06:42:54;;;;;;;8.77;2.17;;;;;;;13.33;82.78;101310.41;4926483;29;20082;-63
2021/12/09 06:45:23;;;;;;;11.40;2.33;;;;;;;13.26;82.70;101312.66;4928829;29;20143;-68
2021/12/09 06:47:51;;;;;;;14.60;2.50;;;;;;;13.16;82.86;101307.03;4929826;29;20043;-62
2021/12/09 06:50:19;;;;;;;16.27;2.70;;;;;;;13.16;82.71;101307.03;4928277;29;20080;-66
2021/12/09 06:52:47;;;;;;;10.87;2.33;;;;;;;13.15;82.93;101327.78;4928595;29;20107;-64
2021/12/09 06:55:16;;;;;;;17.30;2.60;;;;;;;13.13;83.07;101313.19;4935333;29;20134;-76
2021/12/09 06:57:44;;;;;;;15.37;2.63;;;;;;;13.15;82.85;101322.16;4927813;29;20107;-62
2021/12/09 07:00:21;;;;;;;8.13;2.57;;;;;;;12.96;83.01;101300.28;4928335;29;20144;-69
2021/12/09 07:02:48;;;;;;;10.47;1.87;;;;;;;13.11;83.13;101332.28;4927209;29;20130;-65
2021/12/09 07:05:17;;;;;;;13.37;2.17;;;;;;;13.01;83.30;101308.69;4926999;29;22705;-65
2021/12/09 07:07:44;;;;;;;8.13;1.97;;;;;;;13.08;83.18;101330.03;4931503;29;20071;-64
2021/12/09 07:10:13;;;;;;;9.73;2.03;;;;;;;13.01;83.45;101328.31;4934565;29;20488;-64
2021/12/09 07:12:41;;;;;;;11.23;1.90;;;;;;;12.99;83.21;101336.19;4932792;29;20051;-65
2021/12/09 07:15:10;;;;;;;19.83;2.93;;;;;;;13.03;83.29;101337.31;4930849;29;20051;-64
2021/12/09 07:17:38;;;;;;;15.57;2.58;;;;;;;12.98;82.78;101334.47;4927545;29;20079;-64
2021/12/09 07:20:08;;;;;;;8.87;2.23;;;;;;;13.06;82.84;101352.75;4929592;29;20082;-63
2021/12/09 07:22:35;;;;;;;11.77;3.10;;;;;;;13.03;82.63;101342.91;4931139;29;20055;-64
2021/12/09 07:25:04;;;;;;;20.83;2.60;;;;;;;13.07;82.72;101339.56;4933071;29;20071;-66
2021/12/09 07:27:31;;;;;;;16.50;3.50;;;;;;;13.16;82.54;101346.28;4929864;29;20056;-65
2021/12/09 07:29:57;;;;;;;14.47;2.20;;;;;;;13.16;82.42;101343.47;4935240;29;20075;-65
2021/12/09 07:32:31;;;;;;;17.20;2.43;;;;;;;13.16;82.33;101346.28;4932149;29;20054;-63
2021/12/09 07:34:58;;;;;;;14.07;2.23;;;;;;;13.07;82.14;101332.00;4929763;29;20048;-64
2021/12/09 07:37:25;;;;;;;11.37;2.33;;;;;;;13.19;82.17;101356.94;4928271;29;20436;-62
2021/12/09 07:39:52;;;;;;;10.53;1.70;;;;;;;13.15;82.04;101355.81;4930154;29;20444;-64
2021/12/09 07:42:19;;;;;;;19.97;2.10;;;;;;;12.93;82.02;101336.47;4932100;29;20725;-63
2021/12/09 07:44:46;;;;;;;10.43;2.03;;;;;;;12.97;82.01;101343.19;4930552;29;20571;-61
2021/12/09 07:47:13;;;;;;;8.80;2.00;;;;;;;13.02;82.19;101362.81;4926967;29;20131;-61
2021/12/09 07:49:40;;;;;;;7.17;2.13;;;;;;;13.01;82.18;101364.78;4926301;29;20093;-61
2021/12/09 07:52:07;;;;;;;14.23;2.33;;;;;;;13.01;82.28;101377.97;4927424;29;20083;-61
2021/12/09 07:54:34;;;;;;;14.33;3.00;;;;;;;12.99;82.17;101383.84;4926540;29;20143;-61
2021/12/09 07:57:02;;;;;;;24.07;3.80;;;;;;;13.00;82.19;101377.13;4934329;29;20119;-61
2021/12/09 07:59:29;;;;;;;14.67;2.27;;;;;;;13.05;82.09;101385.53;4935378;29;20083;-62
2021/12/09 08:01:55;;;;;;;12.30;2.27;;;;;;;13.01;81.94;101381.59;4929205;29;20093;-62
2021/12/09 08:04:23;;;;;;;16.07;2.70;;;;;;;13.13;82.06;101388.91;4936973;29;20440;-62
2021/12/09 08:06:50;;;;;;;15.07;3.07;;;;;;;13.13;81.85;101383.28;4936847;29;20078;-60
2021/12/09 08:09:16;;;;;;;10.07;2.53;;;;;;;13.13;81.83;101380.50;4923395;29;20136;-61
2021/12/09 08:11:44;;;;;;;6.93;2.23;;;;;;;13.21;81.75;101393.97;4935794;29;20079;-61
2021/12/09 08:14:12;;;;;;;9.77;2.90;;;;;;;13.24;81.75;101385.88;4934313;29;20126;-61
2021/12/09 08:16:39;;;;;;;18.23;2.37;;;;;;;13.25;81.78;101392.34;4935039;29;20048;-61
2021/12/09 08:19:11;;;;;;;17.73;2.83;;;;;;;13.27;81.73;101387.31;4944137;29;20079;-61
2021/12/09 08:21:38;;;;;;;13.97;2.90;;;;;;;13.25;81.66;101390.38;4952737;28;20059;-61
2021/12/09 08:24:07;;;;;;;15.47;2.67;;;;;;;13.24;81.73;101394.31;4926580;29;20175;-61
2021/12/09 08:26:35;;;;;;;16.73;2.57;;;;;;;13.24;81.72;101399.06;4930482;29;20079;-61
2021/12/09 08:29:05;;;;;;;10.87;2.30;;;;;;;13.20;81.84;101411.94;4933086;29;20090;-61
2021/12/09 08:31:34;;;;;;;11.77;2.45;;;;;;;13.19;81.82;101413.88;4932928;29;20171;-61
2021/12/09 08:34:08;;;;;;;6.53;2.33;;;;;;;13.22;81.89;101415.28;4917905;29;20051;-61
2021/12/09 08:36:51;;;;;;;28.90;2.97;;;;;;;13.20;81.96;101421.19;4932813;29;20044;-61
2021/12/09 08:39:20;;;;;;;21.03;3.57;;;;;;;13.22;81.99;101413.31;4935609;29;20055;-61
2021/12/09 08:41:47;;;;;;;14.47;1.90;;;;;;;13.21;82.05;101411.66;4934570;29;20093;-61
2021/12/09 08:44:14;;;;;;;14.90;3.17;;;;;;;13.31;82.02;101415.63;4920000;29;20056;-61
2021/12/09 08:46:41;;;;;;;26.17;5.10;;;;;;;13.22;82.02;101402.09;4934267;29;20150;-61
2021/12/09 08:49:08;;;;;;;31.80;8.43;;;;;;;13.35;81.97;101417.59;4934413;29;20043;-61
2021/12/09 08:51:37;;;;;;;39.40;15.33;;;;;;;13.33;82.03;101414.22;4936037;29;20047;-61
2021/12/09 08:54:04;;;;;;;42.10;18.10;;;;;;;13.33;81.98;101419.00;4935916;29;20056;-61
2021/12/09 08:56:32;;;;;;;39.33;15.43;;;;;;;13.44;82.06;101423.50;4936146;29;20095;-61
2021/12/09 08:59:02;;;;;;;49.77;17.13;;;;;;;13.40;82.09;101422.38;4932238;29;20075;-60
2021/12/09 09:01:29;;;;;;;34.20;13.27;;;;;;;13.41;82.23;101424.06;4931030;29;20047;-61
2021/12/09 09:03:56;;;;;;;36.33;10.30;;;;;;;13.30;82.28;101423.22;4932592;29;20052;-61
2021/12/09 09:06:23;;;;;;;24.07;6.07;;;;;;;13.41;82.25;101429.69;4935176;29;20584;-61
2021/12/09 09:08:56;;;;;;;19.67;5.20;;;;;;;13.47;82.28;101432.22;4932006;29;20135;-61
2021/12/09 09:11:28;;;;;;;23.23;4.97;;;;;;;13.23;82.28;101391.72;4930040;29;20138;-61
2021/12/09 09:13:55;;;;;;;17.07;3.40;;;;;;;13.52;82.45;101434.19;4924204;29;20562;-61
2021/12/09 09:16:22;;;;;;;17.50;3.90;;;;;;;13.62;82.31;101433.34;4925032;29;20123;-61
2021/12/09 09:18:53;;;;;;;22.13;3.20;;;;;;;13.60;82.44;101429.97;4934804;29;20139;-61
2021/12/09 09:21:20;;;;;;;16.63;3.97;;;;;;;13.56;82.69;101434.47;4928090;29;20401;-61
2021/12/09 09:23:47;;;;;;;31.90;3.80;;;;;;;13.49;83.01;101429.97;4930662;29;20048;-61
2021/12/09 09:26:14;;;;;;;29.70;4.57;;;;;;;13.49;83.07;101424.34;4925118;29;20075;-61
2021/12/09 09:28:41;;;;;;;14.17;2.97;;;;;;;13.41;83.25;101438.09;4927243;29;20575;-62
2021/12/09 09:31:09;;;;;;;21.63;3.03;;;;;;;13.38;83.31;101421.81;4934995;29;20079;-61
2021/12/09 09:33:36;;;;;;;28.98;3.70;;;;;;;13.47;83.59;101437.00;4934094;29;20505;-61
2021/12/09 09:36:04;;;;;;;20.73;3.50;;;;;;;13.40;83.89;101423.22;4933087;29;20606;-61
2021/12/09 09:38:31;;;;;;;19.67;4.63;;;;;;;13.59;84.00;101437.56;4933688;29;20052;-61
2021/12/09 09:41:10;;;;;;;31.20;4.60;;;;;;;13.73;84.53;101412.56;4934098;29;20476;-61
2021/12/09 09:46:29;;;;;;;18.80;3.17;;;;;;;14.04;84.57;101423.78;4943576;29;20078;-61
2021/12/09 09:48:57;;;;;;;39.67;3.20;;;;;;;14.01;84.32;101421.53;4935199;29;20441;-61
2021/12/09 09:51:27;;;;;;;11.32;2.33;;;;;;;13.88;84.17;101432.25;4933895;29;20051;-61
2021/12/09 09:53:54;;;;;;;19.00;3.90;;;;;;;13.83;83.97;101440.66;4935188;29;20131;-61
2021/12/09 09:56:23;;;;;;;27.88;3.72;;;;;;;13.72;83.66;101433.34;4932968;29;20079;-61
2021/12/09 09:58:56;;;;;;;14.77;3.42;;;;;;;13.72;83.70;101434.19;4928303;29;20131;-61
2021/12/09 10:01:26;;;;;;;18.23;5.03;;;;;;;13.68;83.84;101438.69;4934615;29;20138;-61
2021/12/09 10:04:10;;;;;;;16.98;4.40;;;;;;;13.60;83.46;101435.56;4929228;29;20043;-61
2021/12/09 10:06:38;;;;;;;17.13;3.22;;;;;;;13.52;83.14;101445.41;4923408;29;20749;-61
2021/12/09 10:09:07;;;;;;;15.32;2.42;;;;;;;13.47;83.29;101465.06;4929062;29;20102;-61
2021/12/09 10:11:34;;;;;;;23.47;2.70;;;;;;;13.26;83.19;101436.97;4927850;29;20578;-61
2021/12/09 10:14:19;;;;;;;19.08;4.15;;;;;;;13.38;83.48;101472.31;4932285;29;20052;-61
2021/12/09 10:17:16;;;;;;;10.37;4.00;;;;;;;13.30;83.68;101492.47;4931712;29;20067;-61
2021/12/09 10:20:05;;;;;;;7.00;2.00;;;;;;;12.96;83.51;101443.28;4932040;29;20044;-61
2021/12/09 10:22:34;;;;;;;11.67;1.70;;;;;;;12.97;83.69;101467.38;4933621;29;20086;-61
2021/12/09 10:25:16;;;;;;;3.15;1.35;;;;;;;12.90;83.81;101469.59;4920246;29;20055;-61
2021/12/09 10:27:45;;;;;;;11.73;2.33;;;;;;;12.90;83.65;101482.78;4934284;29;20091;-61
2021/12/09 10:30:17;;;;;;;6.57;1.60;;;;;;;12.99;83.67;101475.50;4930309;29;20104;-61
2021/12/09 10:32:45;;;;;;;17.87;1.90;;;;;;;12.97;83.61;101466.56;4929100;29;20419;-61
2021/12/09 10:35:15;;;;;;;11.23;2.20;;;;;;;13.21;83.80;101478.13;4935302;29;20075;-61
2021/12/09 10:37:44;;;;;;;;;;;;;;;13.29;84.14;101488.84;4927722;29;20087;-62
2021/12/09 10:40:11;;;;;;;14.53;2.17;;;;;;;13.35;83.78;101492.50;4929044;29;19969;-61
2021/12/09 10:42:40;;;;;;;11.33;2.07;;;;;;;13.40;83.71;101504.59;4931214;29;20086;-61
2021/12/09 10:45:08;;;;;;;10.53;3.13;;;;;;;13.42;83.74;101502.34;4929758;29;20448;-62
2021/12/09 10:50:21;;;;;;;6.23;2.30;;;;;;;13.58;83.62;101480.78;4933405;29;20044;-62
2021/12/09 10:52:57;;;;;;;10.50;2.13;;;;;;;13.70;83.39;101486.13;4929158;29;20099;-62
2021/12/09 10:55:36;;;;;;;14.13;2.83;;;;;;;13.80;83.38;101491.75;4930492;29;20130;-62
2021/12/09 10:58:09;;;;;;;16.08;3.33;;;;;;;13.83;83.42;101501.56;4928397;29;20056;-62
2021/12/09 11:00:52;;;;;;;19.73;2.30;;;;;;;13.89;83.34;101512.53;4928070;29;20134;-62
2021/12/09 11:03:25;;;;;;;4.78;1.80;;;;;;;13.99;83.46;101512.53;4926143;29;20078;-62
2021/12/09 11:06:00;;;;;;;19.52;2.92;;;;;;;14.04;83.28;101500.44;4933448;29;20110;-62
2021/12/09 11:08:29;;;;;;;8.98;2.72;;;;;;;14.24;83.39;101508.03;4928349;29;20466;-62
2021/12/09 11:11:00;;;;;;;13.17;3.50;;;;;;;14.36;83.46;101507.75;4928042;29;20440;-61
2021/12/09 11:13:40;;;;;;;12.05;3.25;;;;;;;14.41;83.33;101507.75;4936412;29;20130;-62
2021/12/09 11:16:08;;;;;;;10.00;3.50;;;;;;;14.39;83.07;101498.75;4937746;28;20507;-62
2021/12/09 11:18:42;;;;;;;16.20;2.85;;;;;;;14.53;82.87;101504.66;4929340;29;20440;-62
2021/12/09 11:21:19;;;;;;;17.38;3.72;;;;;;;14.67;83.24;101511.38;4933729;29;20081;-61
2021/12/09 11:23:52;;;;;;;9.48;2.58;;;;;;;14.85;83.04;101507.94;4933860;29;20095;-62
2021/12/09 11:27:17;;;;;;;20.80;4.32;;;;;;;15.07;83.21;101498.31;4931888;29;20062;-62
2021/12/09 11:29:39;;;;;;;18.20;2.90;;;;;;;15.13;83.13;101502.78;4925533;29;20071;-62
2021/12/09 11:34:49;;;;;;;14.93;3.70;;;;;;;15.16;82.82;101479.69;4931513;29;20467;-62
2021/12/09 11:37:47;;;;;;;19.35;3.85;;;;;;;15.16;82.37;101479.69;4935431;29;20554;-61
2021/12/09 11:40:32;;;;;;;17.65;3.10;;;;;;;15.23;82.52;101463.34;4922600;29;20040;-60